Aviation Digital Data Service (ADDS)

Output produced by METARs form (1446 UTC 23 January 2017)
found at http://aviationweather.gov/adds/metars/
 
KPHX 231254Z 2313/2412 12011KT P6SM VCSH SCT050 BKN080 
     TEMPO 2315/2319 -SHRA BKN040 OVC060 
     FM231900 24012KT P6SM VCSH SCT030 OVC050 
     FM232300 26014KT 5SM -RA BR SCT025 OVC050 
     TEMPO 2323/2403 4SM RA BR BKN030 OVC050 
     FM240500 26010KT P6SM VCSH SCT050 BKN100